Time;durP1;ratioP1;P1;durP2;ratioP2;P2;SDS_P1;SDS_P2;PMS_P1;PMS_P2;Temp;Humidity;BMP_temperature;BMP_pressure;BME280_temperature;BME280_humidity;BME280_pressure;Samples;Min_cycle;Max_cycle;Signal;HPM_P1;HPM_P2
2022/01/03 00:00:31;;;;;;;7.60;1.88;;;12.60;99.90;;;;;;5035779;28;20481;-68
2022/01/03 00:03:00;;;;;;;4.78;1.45;;;12.60;99.90;;;;;;5034806;28;20030;-69
2022/01/03 00:05:28;;;;;;;6.40;1.73;;;12.60;99.90;;;;;;5036327;28;20107;-68
2022/01/03 00:07:54;;;;;;;5.53;1.33;;;12.60;99.90;;;;;;5036160;28;20033;-68
2022/01/03 00:10:20;;;;;;;7.20;2.08;;;12.70;99.90;;;;;;5035795;28;20512;-68
2022/01/03 00:12:47;;;;;;;5.15;1.50;;;12.70;99.90;;;;;;5036139;28;20017;-69
2022/01/03 00:15:14;;;;;;;4.93;1.13;;;12.70;99.90;;;;;;5035131;28;20030;-68
2022/01/03 00:17:40;;;;;;;11.02;1.75;;;12.70;99.90;;;;;;5035972;28;20026;-68
2022/01/03 00:20:07;;;;;;;;;;;12.70;99.90;;;;;;5034920;28;20025;-69
2022/01/03 00:22:40;;;;;;;8.18;1.30;;;12.70;99.90;;;;;;5035847;28;20021;-68
2022/01/03 00:25:15;;;;;;;6.30;1.83;;;12.80;99.90;;;;;;5034793;28;20063;-68
2022/01/03 00:27:51;;;;;;;6.88;1.08;;;12.90;99.90;;;;;;5035783;28;20025;-68
2022/01/03 00:30:21;;;;;;;9.90;2.17;;;12.90;99.90;;;;;;5034572;28;20028;-69
2022/01/03 00:32:51;;;;;;;3.88;0.93;;;12.90;99.90;;;;;;5036093;28;20450;-69
2022/01/03 00:35:18;;;;;;;9.50;1.20;;;12.90;99.90;;;;;;5035792;28;20022;-69
2022/01/03 00:37:45;;;;;;;6.30;1.50;;;12.90;99.90;;;;;;5035551;28;20024;-68
2022/01/03 00:40:15;;;;;;;4.25;1.17;;;13.00;99.90;;;;;;5035307;28;20548;-68
2022/01/03 00:42:41;;;;;;;6.68;1.70;;;13.00;99.90;;;;;;5035466;28;20029;-68
2022/01/03 00:45:08;;;;;;;6.13;1.80;;;13.00;99.90;;;;;;5035336;28;20083;-68
2022/01/03 00:47:34;;;;;;;;;;;13.00;99.90;;;;;;5035414;28;20033;-68
2022/01/03 00:50:20;;;;;;;7.35;1.35;;;13.00;99.90;;;;;;5035197;28;19987;-68
2022/01/03 00:52:46;;;;;;;11.17;1.67;;;13.00;99.90;;;;;;5035201;28;20017;-68
2022/01/03 00:55:12;;;;;;;3.78;0.90;;;13.10;99.90;;;;;;5035254;28;20620;-68
2022/01/03 00:58:07;;;;;;;6.22;1.05;;;13.10;99.90;;;;;;5035365;28;20079;-68
2022/01/03 01:00:37;;;;;;;7.95;1.63;;;13.10;99.90;;;;;;5035122;28;20083;-68
2022/01/03 01:03:15;;;;;;;7.82;1.33;;;13.00;99.90;;;;;;5035003;28;20017;-67
2022/01/03 01:05:50;;;;;;;5.15;1.20;;;13.00;99.90;;;;;;5034860;28;20537;-68
2022/01/03 01:08:22;;;;;;;8.40;1.02;;;13.00;99.90;;;;;;5035039;28;20033;-68
2022/01/03 01:10:52;;;;;;;6.10;1.30;;;13.00;99.90;;;;;;5034348;28;20542;-69
2022/01/03 01:13:20;;;;;;;6.32;1.17;;;13.00;99.90;;;;;;5033286;28;20147;-69
2022/01/03 01:15:45;;;;;;;6.82;1.33;;;13.00;99.90;;;;;;5034553;28;20386;-70
2022/01/03 01:18:11;;;;;;;6.43;1.43;;;13.00;99.90;;;;;;5033005;28;20026;-70
2022/01/03 01:20:39;;;;;;;4.90;0.90;;;13.00;99.90;;;;;;5034212;28;20274;-70
2022/01/03 01:23:06;;;;;;;6.78;1.38;;;13.00;99.90;;;;;;5034565;28;20029;-70
2022/01/03 01:28:07;;;;;;;3.30;1.42;;;13.00;99.90;;;;;;5034814;28;20036;-70
2022/01/03 01:30:33;;;;;;;4.13;1.10;;;13.00;99.90;;;;;;5033856;28;20508;-70
2022/01/03 01:33:16;;;;;;;6.90;1.40;;;13.10;99.90;;;;;;5032851;28;20398;-70
2022/01/03 01:35:53;;;;;;;4.13;1.05;;;13.00;99.90;;;;;;5032715;28;20032;-70
2022/01/03 01:38:21;;;;;;;10.15;2.45;;;13.00;99.90;;;;;;5032696;28;20029;-70
2022/01/03 01:40:50;;;;;;;8.27;1.40;;;13.10;99.90;;;;;;5033892;28;20378;-70
2022/01/03 01:43:24;;;;;;;6.55;1.15;;;13.10;99.90;;;;;;5034105;28;20025;-71
2022/01/03 01:45:51;;;;;;;6.88;1.13;;;13.10;99.90;;;;;;5034029;28;20021;-70
2022/01/03 01:48:19;;;;;;;6.53;1.38;;;13.00;99.90;;;;;;5032537;28;20390;-69
2022/01/03 01:50:50;;;;;;;4.25;1.10;;;13.00;99.90;;;;;;5032349;28;20029;-70
2022/01/03 01:53:22;;;;;;;8.25;1.67;;;13.00;99.90;;;;;;5037534;28;20081;-69
2022/01/03 01:55:51;;;;;;;4.47;1.63;;;13.00;99.90;;;;;;5042846;28;20032;-70
2022/01/03 01:58:20;;;;;;;8.15;1.45;;;13.00;99.90;;;;;;5038664;28;20018;-70
2022/01/03 02:00:52;;;;;;;6.93;1.33;;;13.00;99.90;;;;;;5034465;28;20025;-70
2022/01/03 02:03:57;;;;;;;7.38;1.33;;;13.00;99.90;;;;;;5033828;28;20108;-71
2022/01/03 02:06:36;;;;;;;8.95;1.17;;;12.90;99.90;;;;;;5003307;28;20073;-71
2022/01/03 02:09:07;;;;;;;7.28;1.55;;;12.90;99.90;;;;;;5037241;28;20398;-71
2022/01/03 02:11:53;;;;;;;5.50;1.45;;;12.90;99.90;;;;;;5036591;28;20025;-70
2022/01/03 02:14:23;;;;;;;5.95;1.25;;;12.90;99.90;;;;;;5034224;28;20105;-71
2022/01/03 02:16:50;;;;;;;8.88;1.30;;;13.00;99.90;;;;;;5033052;28;20032;-71
2022/01/03 02:19:16;;;;;;;;;;;12.90;99.90;;;;;;5035111;28;20036;-71
2022/01/03 02:21:42;;;;;;;6.43;1.48;;;12.90;99.90;;;;;;5034173;28;19905;-71
2022/01/03 02:24:08;;;;;;;8.35;1.60;;;12.90;99.90;;;;;;5033516;28;20071;-71
2022/01/03 02:26:34;;;;;;;7.15;1.85;;;12.90;99.90;;;;;;5033208;28;20082;-71
2022/01/03 02:29:00;;;;;;;7.80;1.73;;;12.80;99.90;;;;;;5033191;28;20029;-71
2022/01/03 02:31:26;;;;;;;7.53;2.00;;;12.80;99.90;;;;;;5031626;28;20479;-70
2022/01/03 02:33:52;;;;;;;7.10;1.90;;;12.80;99.90;;;;;;5031759;28;20022;-71
2022/01/03 02:36:18;;;;;;;7.95;1.65;;;12.80;99.90;;;;;;5032970;28;20033;-70
2022/01/03 02:38:44;;;;;;;8.48;1.63;;;12.70;99.90;;;;;;5032958;28;20021;-70
2022/01/03 02:41:10;;;;;;;6.45;1.63;;;12.70;99.90;;;;;;5032723;28;20061;-71
2022/01/03 02:43:36;;;;;;;5.78;1.50;;;12.70;99.90;;;;;;5032658;28;20114;-70
2022/01/03 02:46:02;;;;;;;6.87;2.10;;;12.70;99.90;;;;;;5032954;28;20036;-70
2022/01/03 02:48:28;;;;;;;6.65;1.90;;;12.70;99.90;;;;;;5032888;28;20026;-70
2022/01/03 02:50:54;;;;;;;6.43;2.10;;;12.70;99.90;;;;;;5032844;28;20080;-69
2022/01/03 02:53:20;;;;;;;4.75;1.25;;;12.70;99.90;;;;;;5031422;28;20028;-69
2022/01/03 02:55:46;;;;;;;10.30;2.20;;;12.60;99.90;;;;;;5032859;28;20101;-70
2022/01/03 02:58:13;;;;;;;7.68;1.90;;;12.60;99.90;;;;;;5032731;28;20532;-71
2022/01/03 03:00:48;;;;;;;7.57;2.50;;;12.60;99.90;;;;;;5032839;28;20033;-71
2022/01/03 03:03:20;;;;;;;7.20;1.63;;;12.70;99.90;;;;;;5032884;28;20052;-71
2022/01/03 03:05:46;;;;;;;6.13;2.15;;;12.70;99.90;;;;;;5032916;28;20025;-70
2022/01/03 03:08:13;;;;;;;6.05;1.30;;;12.60;99.90;;;;;;5032918;28;20056;-70
2022/01/03 03:10:40;;;;;;;9.00;1.90;;;12.60;99.90;;;;;;5032387;28;20491;-71
2022/01/03 03:13:06;;;;;;;8.95;1.85;;;12.60;99.90;;;;;;5032606;28;20026;-71
2022/01/03 03:15:33;;;;;;;7.05;1.40;;;12.60;99.90;;;;;;5032745;28;20028;-70
2022/01/03 03:17:59;;;;;;;6.28;1.35;;;12.50;99.90;;;;;;5032586;28;20033;-70
2022/01/03 03:20:28;;;;;;;13.60;1.98;;;12.50;99.90;;;;;;5031160;28;20390;-70
2022/01/03 03:22:55;;;;;;;8.82;1.50;;;12.50;99.90;;;;;;5032414;28;20034;-70
2022/01/03 03:25:24;;;;;;;12.13;1.55;;;12.50;99.90;;;;;;5032636;28;20083;-70
2022/01/03 03:28:02;;;;;;;8.88;1.33;;;12.50;99.90;;;;;;5032733;28;20493;-70
2022/01/03 03:30:31;;;;;;;6.70;2.00;;;12.50;99.90;;;;;;5032237;28;20025;-70
2022/01/03 03:33:22;;;;;;;9.18;1.85;;;12.50;99.90;;;;;;5032373;28;20466;-71
2022/01/03 03:35:50;;;;;;;9.05;1.77;;;12.50;99.90;;;;;;5032527;28;20021;-70
2022/01/03 03:38:19;;;;;;;12.23;1.67;;;12.50;99.90;;;;;;5032553;28;20499;-71
2022/01/03 03:40:47;;;;;;;6.85;1.77;;;12.40;99.90;;;;;;5031643;28;20135;-71
2022/01/03 03:43:14;;;;;;;6.88;1.63;;;12.40;99.90;;;;;;5031046;28;20441;-71
2022/01/03 03:45:39;;;;;;;7.15;1.25;;;12.40;99.90;;;;;;5031847;28;20351;-71
2022/01/03 03:48:05;;;;;;;7.30;1.30;;;12.40;99.90;;;;;;5032284;28;20047;-71
2022/01/03 03:50:31;;;;;;;11.02;1.77;;;12.40;99.90;;;;;;5032177;28;20291;-71
2022/01/03 03:52:57;;;;;;;9.00;1.40;;;12.40;99.90;;;;;;5033776;28;20104;-69
2022/01/03 03:55:22;;;;;;;10.90;1.70;;;12.30;99.90;;;;;;5036078;28;20026;-69
2022/01/03 03:57:48;;;;;;;9.35;1.65;;;12.30;99.90;;;;;;5036230;28;20075;-69
2022/01/03 04:00:16;;;;;;;9.55;1.63;;;12.30;99.90;;;;;;5035990;28;20038;-69
2022/01/03 04:02:42;;;;;;;6.47;1.75;;;12.30;99.90;;;;;;5035837;28;20467;-67
2022/01/03 04:05:09;;;;;;;6.50;1.25;;;12.30;99.90;;;;;;5034348;28;20029;-68
2022/01/03 04:07:36;;;;;;;6.25;1.40;;;12.30;99.90;;;;;;5035735;28;20032;-68
2022/01/03 04:10:05;;;;;;;10.50;2.50;;;12.30;99.90;;;;;;5035358;28;20033;-68
2022/01/03 04:12:31;;;;;;;12.68;1.60;;;12.30;99.90;;;;;;5035527;28;20491;-68
2022/01/03 04:14:57;;;;;;;9.38;1.33;;;12.20;99.90;;;;;;5035624;28;20029;-67
2022/01/03 04:17:23;;;;;;;6.80;1.30;;;12.20;99.90;;;;;;5034179;28;20022;-68
2022/01/03 04:19:49;;;;;;;9.35;1.48;;;12.20;99.90;;;;;;5035561;28;20568;-68
2022/01/03 04:22:15;;;;;;;5.70;1.15;;;12.20;99.90;;;;;;5035387;28;20022;-67
2022/01/03 04:24:40;;;;;;;9.00;1.58;;;12.10;99.90;;;;;;5036372;28;20430;-68
2022/01/03 04:27:06;;;;;;;5.30;0.93;;;12.10;99.90;;;;;;5038331;28;20036;-68
2022/01/03 04:29:31;;;;;;;4.63;0.87;;;12.10;99.90;;;;;;5035482;28;20264;-69
2022/01/03 04:31:57;;;;;;;3.03;0.75;;;12.00;99.90;;;;;;5035157;28;20026;-67
2022/01/03 04:34:23;;;;;;;5.97;0.82;;;11.90;99.90;;;;;;5033789;28;20425;-67
2022/01/03 04:36:49;;;;;;;5.37;0.93;;;11.90;99.90;;;;;;5035096;28;20079;-67
2022/01/03 04:39:15;;;;;;;6.90;1.60;;;11.80;99.90;;;;;;5033747;28;20257;-67
2022/01/03 04:41:40;;;;;;;3.25;0.80;;;11.70;99.90;;;;;;5035258;28;20384;-67
2022/01/03 04:44:06;;;;;;;7.77;1.33;;;11.60;99.90;;;;;;5035036;28;20029;-68
2022/01/03 04:46:36;;;;;;;7.57;1.47;;;11.50;99.90;;;;;;5035027;28;20268;-67
2022/01/03 04:49:05;;;;;;;6.38;1.00;;;11.50;99.90;;;;;;5033572;28;20025;-67
2022/01/03 04:51:31;;;;;;;10.90;1.45;;;11.40;99.90;;;;;;5033562;28;20034;-67
2022/01/03 04:53:56;;;;;;;4.95;0.93;;;11.30;99.90;;;;;;5035226;28;20017;-68
2022/01/03 04:56:22;;;;;;;7.20;1.57;;;11.30;99.90;;;;;;5035248;28;20036;-68
2022/01/03 04:58:48;;;;;;;7.78;1.00;;;11.20;99.90;;;;;;5033659;28;20031;-68
2022/01/03 05:01:14;;;;;;;6.93;1.10;;;11.20;99.90;;;;;;5034790;28;20064;-68
2022/01/03 05:03:39;;;;;;;7.50;1.23;;;11.20;99.90;;;;;;5033920;28;20026;-68
2022/01/03 05:06:05;;;;;;;6.22;0.88;;;11.10;99.90;;;;;;5034214;28;20208;-67
2022/01/03 05:08:33;;;;;;;5.80;1.25;;;11.10;99.90;;;;;;5034652;28;20486;-68
2022/01/03 05:11:00;;;;;;;6.50;2.42;;;11.10;99.90;;;;;;5034473;28;20048;-68
2022/01/03 05:13:27;;;;;;;8.23;1.35;;;11.10;99.90;;;;;;5035770;28;20018;-68
2022/01/03 05:15:53;;;;;;;14.50;1.92;;;11.10;99.90;;;;;;5037259;28;20028;-68
2022/01/03 05:18:19;;;;;;;6.83;1.70;;;11.10;99.90;;;;;;5034426;28;20479;-68
2022/01/03 05:20:45;;;;;;;9.05;1.45;;;11.00;99.90;;;;;;5034860;28;20110;-67
2022/01/03 05:23:10;;;;;;;4.50;1.02;;;11.00;99.90;;;;;;5034824;28;20113;-67
2022/01/03 05:25:36;;;;;;;7.70;1.20;;;11.00;99.90;;;;;;5033057;28;20120;-68
2022/01/03 05:28:02;;;;;;;8.27;1.43;;;11.00;99.90;;;;;;5033012;28;20029;-69
2022/01/03 05:30:28;;;;;;;6.22;1.60;;;11.10;99.90;;;;;;5034064;28;20025;-69
2022/01/03 05:32:54;;;;;;;9.32;1.52;;;11.10;99.90;;;;;;5034121;28;20026;-68
2022/01/03 05:35:19;;;;;;;8.07;1.17;;;11.10;99.90;;;;;;5033152;28;20026;-67
2022/01/03 05:37:45;;;;;;;10.25;2.03;;;11.10;99.90;;;;;;5034112;28;20057;-67
2022/01/03 05:40:11;;;;;;;11.73;2.43;;;11.10;99.90;;;;;;5034948;28;20379;-68
2022/01/03 05:42:37;;;;;;;8.50;1.58;;;11.10;99.90;;;;;;5032694;28;20108;-68
2022/01/03 05:45:04;;;;;;;9.70;1.57;;;11.00;99.90;;;;;;5032770;28;20025;-68
2022/01/03 05:47:30;;;;;;;7.93;1.50;;;11.10;99.90;;;;;;5033684;28;20059;-68
2022/01/03 05:49:56;;;;;;;;;;;11.00;99.90;;;;;;5033984;28;20100;-68
2022/01/03 05:52:22;;;;;;;8.05;1.50;;;11.10;99.90;;;;;;5033938;28;19945;-68
2022/01/03 05:54:48;;;;;;;7.28;1.38;;;11.10;99.90;;;;;;5033806;28;20056;-68
2022/01/03 05:57:14;;;;;;;16.00;2.00;;;11.10;99.90;;;;;;5032598;28;20087;-68
2022/01/03 05:59:40;;;;;;;10.13;1.70;;;11.10;99.90;;;;;;5033013;28;20483;-68
2022/01/03 06:02:06;;;;;;;7.68;1.98;;;11.10;99.90;;;;;;5033968;28;20025;-68
2022/01/03 06:04:53;;;;;;;7.65;1.50;;;11.10;99.90;;;;;;5033408;28;20343;-68
2022/01/03 06:07:19;;;;;;;12.82;2.58;;;11.00;99.90;;;;;;5033583;28;20207;-68
2022/01/03 06:09:45;;;;;;;9.82;1.60;;;11.00;99.90;;;;;;5033599;28;20065;-68
2022/01/03 06:12:11;;;;;;;13.15;2.10;;;11.00;99.90;;;;;;5033412;28;20449;-68
2022/01/03 06:14:37;;;;;;;9.82;1.73;;;11.00;99.90;;;;;;5033332;28;20499;-69
2022/01/03 06:17:05;;;;;;;9.02;1.88;;;11.00;99.90;;;;;;5032795;28;20090;-69
2022/01/03 06:19:32;;;;;;;10.23;1.75;;;11.00;99.90;;;;;;5032261;28;20065;-69
2022/01/03 06:22:01;;;;;;;9.75;1.65;;;11.10;99.90;;;;;;5033612;28;20494;-68
2022/01/03 06:24:26;;;;;;;11.85;1.88;;;11.10;99.90;;;;;;5033320;28;20028;-68
2022/01/03 06:26:52;;;;;;;7.17;1.33;;;11.10;99.90;;;;;;5032227;28;20033;-69
2022/01/03 06:29:19;;;;;;;9.10;1.50;;;11.20;99.90;;;;;;5033054;28;20036;-69
2022/01/03 06:31:46;;;;;;;6.50;1.63;;;11.20;99.90;;;;;;5033005;28;20032;-69
2022/01/03 06:34:12;;;;;;;10.70;1.50;;;11.20;99.90;;;;;;5031889;28;20024;-69
2022/01/03 06:36:38;;;;;;;11.18;1.67;;;11.20;99.90;;;;;;5033499;28;20382;-69
2022/01/03 06:39:05;;;;;;;10.70;1.50;;;11.20;99.90;;;;;;5033245;28;20028;-69
2022/01/03 06:41:31;;;;;;;11.82;1.63;;;11.30;99.90;;;;;;5032151;28;20490;-68
2022/01/03 06:43:57;;;;;;;8.05;1.40;;;11.30;99.90;;;;;;5033034;28;20083;-69
2022/01/03 06:46:23;;;;;;;7.32;1.55;;;11.30;99.90;;;;;;5033100;28;20033;-69
2022/01/03 06:48:49;;;;;;;9.88;1.70;;;11.30;99.90;;;;;;5033109;28;20025;-68
2022/01/03 06:51:15;;;;;;;10.82;1.63;;;11.30;99.90;;;;;;5032923;28;20072;-68
2022/01/03 06:53:41;;;;;;;11.35;1.88;;;11.30;99.90;;;;;;5033462;28;20359;-70
2022/01/03 06:56:08;;;;;;;14.40;2.10;;;11.40;99.90;;;;;;5031683;28;20113;-70
2022/01/03 06:58:35;;;;;;;8.35;1.50;;;11.40;99.90;;;;;;5031967;28;20332;-65
2022/01/03 07:01:00;;;;;;;;;;;11.40;99.90;;;;;;5033212;28;20040;-65
2022/01/03 07:03:26;;;;;;;9.80;1.50;;;11.40;99.90;;;;;;5032834;28;19905;-65
2022/01/03 07:05:52;;;;;;;12.40;1.80;;;11.50;99.90;;;;;;5033415;28;20034;-65
2022/01/03 07:08:21;;;;;;;9.30;1.50;;;11.40;99.90;;;;;;5033589;28;20208;-65
2022/01/03 07:10:47;;;;;;;9.25;1.63;;;11.40;99.90;;;;;;5032487;28;20082;-65
2022/01/03 07:13:13;;;;;;;8.30;1.60;;;11.40;99.90;;;;;;5032719;28;20088;-65
2022/01/03 07:21:06;;;;;;;11.02;2.38;;;11.40;99.90;;;;;;5033989;28;20037;-66
2022/01/03 07:23:34;;;;;;;10.87;2.00;;;11.30;99.90;;;;;;5033171;28;20034;-65
2022/01/03 07:25:59;;;;;;;12.57;2.10;;;11.30;99.90;;;;;;5033082;28;20256;-65
2022/01/03 07:28:25;;;;;;;12.10;1.80;;;11.30;99.90;;;;;;5034090;28;20458;-65
2022/01/03 07:30:50;;;;;;;14.17;2.40;;;11.30;99.90;;;;;;5035021;28;20483;-65
2022/01/03 07:33:16;;;;;;;7.23;1.63;;;11.20;99.90;;;;;;5036533;28;20479;-65
2022/01/03 07:35:42;;;;;;;13.27;2.65;;;11.10;99.90;;;;;;5036546;28;20053;-64
2022/01/03 07:38:07;;;;;;;10.07;1.33;;;11.10;99.90;;;;;;5037322;28;20434;-68
2022/01/03 07:40:33;;;;;;;9.87;1.60;;;11.00;99.90;;;;;;5036549;28;20021;-68
2022/01/03 07:42:59;;;;;;;6.72;1.48;;;11.00;99.90;;;;;;5036714;28;20079;-68
2022/01/03 07:45:26;;;;;;;16.55;1.98;;;10.90;99.90;;;;;;5036622;28;20026;-68
2022/01/03 07:47:51;;;;;;;;;;;10.90;99.90;;;;;;5036655;28;20026;-68
2022/01/03 07:50:17;;;;;;;8.93;1.30;;;10.90;99.90;;;;;;5035962;28;19928;-68
2022/01/03 07:52:43;;;;;;;5.82;1.25;;;10.90;99.90;;;;;;5034944;28;20032;-68
2022/01/03 07:55:11;;;;;;;8.30;2.15;;;10.90;99.90;;;;;;5035608;28;20033;-69
2022/01/03 07:57:37;;;;;;;11.45;2.17;;;11.00;99.90;;;;;;5034107;28;20022;-68
2022/01/03 08:00:08;;;;;;;9.30;2.25;;;10.90;99.90;;;;;;5032951;28;20045;-68
2022/01/03 08:02:34;;;;;;;12.25;1.85;;;10.90;99.90;;;;;;5035550;28;20026;-69
2022/01/03 08:04:59;;;;;;;11.23;2.20;;;10.90;99.90;;;;;;5041617;28;20467;-70
2022/01/03 08:07:25;;;;;;;14.25;2.00;;;10.90;99.90;;;;;;5041196;28;20725;-68
2022/01/03 08:09:51;;;;;;;8.30;1.77;;;10.80;99.90;;;;;;5036127;28;20041;-69
2022/01/03 08:12:17;;;;;;;15.30;2.77;;;10.80;99.90;;;;;;5037947;28;20025;-68
2022/01/03 08:14:43;;;;;;;;;;;10.80;99.90;;;;;;5036771;28;20256;-69
2022/01/03 08:17:09;;;;;;;10.50;2.22;;;10.80;99.90;;;;;;5035546;28;19912;-68
2022/01/03 08:19:35;;;;;;;9.10;1.70;;;10.80;99.90;;;;;;5035734;28;20041;-70
2022/01/03 08:22:00;;;;;;;12.37;2.00;;;10.80;99.90;;;;;;5035683;28;20641;-69
2022/01/03 08:24:26;;;;;;;10.50;2.17;;;10.80;99.90;;;;;;5035546;28;20040;-69
2022/01/03 08:26:52;;;;;;;10.25;2.45;;;10.80;99.90;;;;;;5035430;28;20488;-69
2022/01/03 08:29:18;;;;;;;11.47;2.80;;;10.90;99.90;;;;;;5034538;28;20022;-69
2022/01/03 08:31:43;;;;;;;9.53;2.20;;;10.90;99.90;;;;;;5035775;28;20052;-68
2022/01/03 08:34:09;;;;;;;11.70;2.40;;;10.90;99.90;;;;;;5035765;28;20069;-69
2022/01/03 08:36:35;;;;;;;10.30;2.03;;;10.90;99.90;;;;;;5035487;28;20021;-68
2022/01/03 08:39:00;;;;;;;11.35;1.90;;;11.00;99.90;;;;;;5034830;28;20017;-67
2022/01/03 08:41:26;;;;;;;12.33;2.50;;;11.00;99.90;;;;;;5033078;28;20033;-69
2022/01/03 08:43:52;;;;;;;11.93;1.95;;;11.00;99.90;;;;;;5035224;28;20026;-68
2022/01/03 08:46:19;;;;;;;11.68;2.30;;;11.00;99.90;;;;;;5033416;28;20049;-68
2022/01/03 08:48:45;;;;;;;8.35;1.65;;;11.10;99.90;;;;;;5033772;28;20022;-68
2022/01/03 08:51:10;;;;;;;8.48;2.28;;;11.10;99.90;;;;;;5036210;28;20041;-68
2022/01/03 08:53:36;;;;;;;12.55;4.03;;;11.20;99.90;;;;;;5033718;28;20116;-68
2022/01/03 08:56:03;;;;;;;13.00;4.40;;;11.20;99.90;;;;;;5035579;28;20048;-68
2022/01/03 08:58:29;;;;;;;10.77;3.60;;;11.30;99.90;;;;;;5035709;28;20017;-67
2022/01/03 09:00:54;;;;;;;15.23;3.35;;;11.30;99.90;;;;;;5034867;28;20145;-68
2022/01/03 09:03:20;;;;;;;10.97;1.73;;;11.30;99.90;;;;;;5034764;28;20064;-68
2022/01/03 09:05:47;;;;;;;11.38;2.33;;;11.40;99.90;;;;;;5034716;28;20026;-68
2022/01/03 09:08:13;;;;;;;10.57;1.95;;;11.50;99.90;;;;;;5034674;28;20053;-68
2022/01/03 09:10:40;;;;;;;12.45;2.30;;;11.50;99.90;;;;;;5033845;28;20384;-68
2022/01/03 09:13:05;;;;;;;8.95;2.42;;;11.50;99.90;;;;;;5034391;28;20509;-67
2022/01/03 09:15:33;;;;;;;6.47;2.00;;;11.50;99.90;;;;;;5034407;28;20061;-67
2022/01/03 09:17:59;;;;;;;8.60;2.33;;;11.60;99.90;;;;;;5034121;28;20025;-68
2022/01/03 09:20:24;;;;;;;8.63;2.00;;;11.60;99.90;;;;;;5032823;28;20021;-68
2022/01/03 09:22:54;;;;;;;7.50;1.93;;;11.60;99.90;;;;;;5034066;28;20033;-68
2022/01/03 09:30:49;;;;;;;8.80;1.90;;;11.60;99.90;;;;;;5035795;28;20044;-67
2022/01/03 09:33:15;;;;;;;10.18;2.10;;;11.60;99.90;;;;;;5033822;28;20028;-67
2022/01/03 09:35:42;;;;;;;8.25;2.00;;;11.60;99.90;;;;;;5033773;28;20466;-68
2022/01/03 09:38:07;;;;;;;9.40;2.47;;;11.50;99.90;;;;;;5034035;28;20025;-68
2022/01/03 09:40:34;;;;;;;12.88;2.17;;;11.60;99.90;;;;;;5033902;28;20025;-68
2022/01/03 09:43:01;;;;;;;10.00;1.92;;;11.70;99.90;;;;;;5033855;28;20036;-67
2022/01/03 09:45:32;;;;;;;10.77;2.03;;;11.70;99.90;;;;;;5034242;28;20037;-69
2022/01/03 09:48:00;;;;;;;11.65;1.73;;;11.70;99.90;;;;;;5032506;28;20034;-69
2022/01/03 09:50:26;;;;;;;8.50;2.28;;;11.80;99.90;;;;;;5033495;28;20065;-69
2022/01/03 09:52:52;;;;;;;8.80;2.05;;;11.80;99.90;;;;;;5034123;28;20025;-70
2022/01/03 09:55:21;;;;;;;12.95;2.42;;;11.90;99.90;;;;;;5033529;28;20517;-69
2022/01/03 09:57:48;;;;;;;8.65;2.65;;;11.80;99.90;;;;;;5034653;28;20017;-70
2022/01/03 10:00:16;;;;;;;10.13;2.42;;;11.80;99.90;;;;;;5037348;28;20025;-70
2022/01/03 10:02:46;;;;;;;6.55;2.13;;;11.90;99.90;;;;;;5037692;28;20022;-68
2022/01/03 10:05:12;;;;;;;8.82;2.30;;;11.90;99.90;;;;;;5033736;28;20100;-68
2022/01/03 10:07:41;;;;;;;8.13;1.60;;;11.90;99.90;;;;;;5032359;28;20453;-71
2022/01/03 10:10:12;;;;;;;7.43;1.90;;;11.90;99.90;;;;;;5033677;28;20033;-72
2022/01/03 10:12:39;;;;;;;11.05;2.00;;;11.90;99.90;;;;;;5033718;28;20021;-72
2022/01/03 10:15:06;;;;;;;11.18;2.15;;;11.90;99.90;;;;;;5033558;28;20032;-72
2022/01/03 10:17:36;;;;;;;8.90;1.83;;;11.90;99.90;;;;;;5032293;28;20030;-72
2022/01/03 10:20:05;;;;;;;8.80;1.90;;;11.90;99.90;;;;;;5035018;28;20028;-72
2022/01/03 10:22:33;;;;;;;8.05;1.92;;;11.90;99.90;;;;;;5034063;28;20026;-72
2022/01/03 10:25:24;;;;;;;9.70;1.90;;;11.90;99.90;;;;;;5036327;28;20037;-72
2022/01/03 10:27:59;;;;;;;11.15;1.90;;;11.90;99.90;;;;;;5036163;28;20049;-73
2022/01/03 10:30:35;;;;;;;10.48;1.80;;;11.90;99.90;;;;;;5032365;28;20026;-72
2022/01/03 10:33:03;;;;;;;8.30;1.80;;;12.00;99.90;;;;;;5032106;28;20055;-72
2022/01/03 10:35:38;;;;;;;5.80;1.67;;;12.00;99.90;;;;;;5033360;28;20021;-72
2022/01/03 10:38:04;;;;;;;7.55;1.88;;;12.10;99.90;;;;;;5032458;28;20112;-71
2022/01/03 10:40:31;;;;;;;10.07;2.25;;;12.10;99.90;;;;;;5034012;28;20428;-70
2022/01/03 10:43:12;;;;;;;7.50;1.60;;;12.10;99.90;;;;;;5031858;28;20064;-71
2022/01/03 10:45:39;;;;;;;12.77;2.30;;;12.10;99.90;;;;;;5033361;28;20032;-71
2022/01/03 10:48:28;;;;;;;8.45;2.08;;;12.20;99.90;;;;;;5031673;28;20443;-71
2022/01/03 10:50:56;;;;;;;10.35;1.83;;;12.20;99.90;;;;;;5032764;28;20029;-70
2022/01/03 10:53:32;;;;;;;5.75;1.08;;;12.30;99.90;;;;;;5031338;28;20025;-70
2022/01/03 10:55:58;;;;;;;8.32;1.63;;;12.30;99.90;;;;;;5032679;28;20018;-70
2022/01/03 10:58:32;;;;;;;8.98;2.00;;;12.40;99.90;;;;;;5031200;28;20106;-71
2022/01/03 11:00:59;;;;;;;7.30;2.05;;;12.40;99.90;;;;;;5032692;28;20157;-71
2022/01/03 11:03:35;;;;;;;9.35;1.77;;;12.40;99.90;;;;;;5033460;28;20026;-70
2022/01/03 11:06:50;;;;;;;7.88;1.83;;;12.40;99.90;;;;;;5035325;28;20051;-70
2022/01/03 11:11:46;;;;;;;7.90;1.65;;;12.30;99.90;;;;;;5036977;28;20106;-70
2022/01/03 11:14:30;;;;;;;7.60;1.85;;;12.30;99.90;;;;;;5036558;28;20030;-70
2022/01/03 11:16:57;;;;;;;9.27;1.50;;;12.30;99.90;;;;;;5036563;28;20032;-70
2022/01/03 11:19:36;;;;;;;8.75;1.50;;;12.30;99.90;;;;;;5037521;28;20085;-70
2022/01/03 11:22:02;;;;;;;11.52;3.13;;;12.30;99.90;;;;;;5036900;28;20026;-70
2022/01/03 11:24:28;;;;;;;10.30;1.83;;;12.30;99.90;;;;;;5036412;28;20025;-70
2022/01/03 11:26:55;;;;;;;6.15;1.48;;;12.40;99.90;;;;;;5036455;28;20390;-71
2022/01/03 11:29:22;;;;;;;7.35;1.52;;;12.40;99.90;;;;;;5036608;28;20118;-71
2022/01/03 11:31:51;;;;;;;5.85;1.33;;;12.50;99.90;;;;;;5036352;28;20101;-72
2022/01/03 11:34:23;;;;;;;6.05;1.67;;;12.40;99.90;;;;;;5035113;28;20478;-71
2022/01/03 11:36:49;;;;;;;9.23;2.17;;;12.40;99.90;;;;;;5036561;28;20026;-71
2022/01/03 11:39:19;;;;;;;6.60;1.30;;;12.40;99.90;;;;;;5036695;28;20128;-71
2022/01/03 11:41:45;;;;;;;6.78;1.50;;;12.50;99.90;;;;;;5036438;28;20033;-70
2022/01/03 11:44:12;;;;;;;7.05;1.70;;;12.40;99.90;;;;;;5036339;28;20029;-71
2022/01/03 11:46:42;;;;;;;6.88;1.38;;;12.40;99.90;;;;;;5036022;28;20391;-70
2022/01/03 11:49:08;;;;;;;9.63;1.80;;;12.40;99.90;;;;;;5034696;28;20029;-70
2022/01/03 11:51:35;;;;;;;3.50;1.13;;;12.50;99.90;;;;;;5034871;28;20061;-71
2022/01/03 11:54:03;;;;;;;6.78;1.85;;;12.50;99.90;;;;;;5034744;28;20429;-70
2022/01/03 11:56:30;;;;;;;4.68;1.40;;;12.60;99.90;;;;;;5035739;28;20425;-70
2022/01/03 12:04:29;;;;;;;7.40;1.80;;;12.60;99.90;;;;;;5035880;28;20382;-71
2022/01/03 12:07:05;;;;;;;7.20;1.60;;;12.60;99.90;;;;;;5035762;28;20101;-71
2022/01/03 12:09:33;;;;;;;7.83;2.10;;;12.70;99.90;;;;;;5035769;28;20124;-70
2022/01/03 12:11:59;;;;;;;6.65;1.77;;;12.70;99.90;;;;;;5036043;28;20033;-69
2022/01/03 12:14:37;;;;;;;6.30;1.80;;;12.70;99.90;;;;;;5038235;28;20108;-68
2022/01/03 12:17:05;;;;;;;8.88;1.70;;;12.80;99.90;;;;;;5038223;28;20018;-70
2022/01/03 12:19:36;;;;;;;5.70;1.58;;;12.80;99.90;;;;;;5050258;28;20033;-69
2022/01/03 12:22:19;;;;;;;6.53;2.15;;;12.90;99.90;;;;;;5050184;28;20053;-67
2022/01/03 12:24:48;;;;;;;5.82;1.52;;;12.80;99.90;;;;;;5041690;28;20032;-69
2022/01/03 12:27:14;;;;;;;6.63;1.55;;;12.80;99.90;;;;;;5036733;28;20043;-67
2022/01/03 12:29:55;;;;;;;7.97;1.75;;;12.80;99.90;;;;;;5036351;28;20522;-68
2022/01/03 12:32:27;;;;;;;6.53;1.73;;;12.80;99.90;;;;;;5035482;28;20033;-68
2022/01/03 12:35:19;;;;;;;5.78;1.77;;;12.80;99.90;;;;;;5035533;28;20022;-68
2022/01/03 12:38:08;;;;;;;6.55;1.50;;;12.80;99.90;;;;;;5035667;28;20056;-67
2022/01/03 12:40:44;;;;;;;8.90;1.92;;;12.90;99.90;;;;;;5034837;28;20017;-67
2022/01/03 12:43:12;;;;;;;5.10;1.27;;;12.90;99.90;;;;;;5035265;28;20075;-68
2022/01/03 12:45:42;;;;;;;8.55;2.10;;;12.80;99.90;;;;;;5035524;28;20422;-66
2022/01/03 12:48:08;;;;;;;7.60;1.67;;;12.70;99.90;;;;;;5035108;28;20044;-68
2022/01/03 12:50:35;;;;;;;8.37;1.77;;;12.70;99.90;;;;;;5034983;28;20537;-66
2022/01/03 12:53:02;;;;;;;7.65;1.58;;;12.70;99.90;;;;;;5035255;28;20026;-68
2022/01/03 12:55:37;;;;;;;8.00;1.63;;;12.70;99.90;;;;;;5035155;28;20017;-67
2022/01/03 12:58:16;;;;;;;8.10;1.90;;;12.60;99.90;;;;;;5035194;28;20032;-67
2022/01/03 13:00:50;;;;;;;7.55;1.67;;;12.60;99.90;;;;;;5033541;28;20029;-70
2022/01/03 13:03:25;;;;;;;7.35;1.60;;;12.60;99.90;;;;;;5035299;28;20036;-71
2022/01/03 13:06:13;;;;;;;6.95;1.60;;;12.60;99.90;;;;;;5035239;28;20025;-71
2022/01/03 13:08:41;;;;;;;8.38;1.35;;;12.60;99.90;;;;;;5034781;28;20477;-71
2022/01/03 13:11:12;;;;;;;7.28;1.70;;;12.70;99.90;;;;;;5033409;28;20025;-71
2022/01/03 13:13:40;;;;;;;8.57;2.15;;;12.70;99.90;;;;;;5035832;28;20029;-71